Time;durP1;ratioP1;P1;durP2;ratioP2;P2;SDS_P1;SDS_P2;PMS_P1;PMS_P2;Temp;Humidity;BMP_temperature;BMP_pressure;BME280_temperature;BME280_humidity;BME280_pressure;Samples;Min_cycle;Max_cycle;Signal;HPM_P1;HPM_P2
2023/08/22 00:00:29;;;;;;;20.20;15.77;;;20.10;83.00;;;;;;4943291;28;20023;-77
2023/08/22 00:02:56;;;;;;;22.70;17.25;;;20.10;82.80;;;;;;4938418;28;20035;-77
2023/08/22 00:05:22;;;;;;;23.35;18.75;;;20.10;83.00;;;;;;4938594;28;20027;-78
2023/08/22 00:07:49;;;;;;;25.70;19.00;;;20.10;83.10;;;;;;4957454;28;20050;-77
2023/08/22 00:10:15;;;;;;;20.90;17.40;;;20.10;83.10;;;;;;4963151;28;20027;-78
2023/08/22 00:12:42;;;;;;;24.63;17.92;;;20.10;83.20;;;;;;4954305;28;20041;-79
2023/08/22 00:15:12;;;;;;;23.10;16.45;;;20.10;83.10;;;;;;4942256;28;20077;-77
2023/08/22 00:17:40;;;;;;;21.40;17.83;;;20.10;83.30;;;;;;4949985;28;20112;-77
2023/08/22 00:20:08;;;;;;;22.60;17.75;;;20.00;83.40;;;;;;4955901;28;20027;-78
2023/08/22 00:22:34;;;;;;;23.27;18.70;;;20.00;83.50;;;;;;4945676;28;20119;-78
2023/08/22 00:25:00;;;;;;;23.42;18.13;;;19.90;83.40;;;;;;4948429;28;20091;-78
2023/08/22 00:27:27;;;;;;;22.95;17.52;;;19.80;83.60;;;;;;4941481;28;20097;-77
2023/08/22 00:29:52;;;;;;;22.38;17.73;;;19.80;83.70;;;;;;4947071;28;20023;-77
2023/08/22 00:32:18;;;;;;;21.63;16.75;;;19.80;83.80;;;;;;4947102;28;20085;-77
2023/08/22 00:34:44;;;;;;;21.17;17.20;;;19.70;84.00;;;;;;4969593;28;20383;-77
2023/08/22 00:37:09;;;;;;;22.77;18.10;;;19.60;84.10;;;;;;4962818;28;20050;-77
2023/08/22 00:39:35;;;;;;;22.40;16.88;;;19.60;84.10;;;;;;4955641;28;20496;-77
2023/08/22 00:42:01;;;;;;;22.48;18.02;;;19.60;84.30;;;;;;4955671;28;20427;-77
2023/08/22 00:44:26;;;;;;;21.23;16.67;;;19.60;84.40;;;;;;4953925;28;20048;-77
2023/08/22 00:46:52;;;;;;;23.23;17.48;;;19.50;84.50;;;;;;4965380;28;20459;-78
2023/08/22 00:49:18;;;;;;;22.80;17.83;;;19.50;84.60;;;;;;4949391;28;20042;-77
2023/08/22 00:51:44;;;;;;;25.50;18.55;;;19.50;84.70;;;;;;4948864;28;20039;-77
2023/08/22 00:54:10;;;;;;;22.33;18.90;;;19.50;84.80;;;;;;4986247;28;20120;-77
2023/08/22 00:56:37;;;;;;;24.83;17.48;;;19.40;84.80;;;;;;4955899;28;20102;-77
2023/08/22 00:59:03;;;;;;;23.42;18.08;;;19.40;84.90;;;;;;4951125;28;20039;-77
2023/08/22 01:01:30;;;;;;;20.65;17.95;;;19.40;84.80;;;;;;4949557;28;20430;-77
2023/08/22 01:03:56;;;;;;;23.98;17.13;;;19.30;84.70;;;;;;4947291;28;20114;-77
2023/08/22 01:06:36;;;;;;;19.63;16.63;;;19.30;84.60;;;;;;4948808;28;20172;-77
2023/08/22 01:09:10;;;;;;;22.23;17.35;;;19.30;84.60;;;;;;4959291;28;20047;-77
2023/08/22 01:11:40;;;;;;;23.60;16.93;;;19.20;84.70;;;;;;4961621;28;20031;-77
2023/08/22 01:14:09;;;;;;;22.00;17.00;;;19.20;84.70;;;;;;4948489;28;20070;-77
2023/08/22 01:16:36;;;;;;;21.48;17.92;;;19.10;84.70;;;;;;4938623;28;20044;-77
2023/08/22 01:19:04;;;;;;;21.35;17.75;;;19.10;84.90;;;;;;4952299;28;20044;-77
2023/08/22 01:21:34;;;;;;;23.38;17.95;;;19.10;85.10;;;;;;4949208;28;20050;-77
2023/08/22 01:24:02;;;;;;;24.17;18.77;;;19.00;85.10;;;;;;5022137;28;20045;-77
2023/08/22 01:26:29;;;;;;;22.65;18.25;;;19.00;85.00;;;;;;5051100;28;20103;-77
2023/08/22 01:29:03;;;;;;;23.65;18.50;;;19.00;85.00;;;;;;4956874;28;20416;-77
2023/08/22 01:31:38;;;;;;;25.02;18.25;;;19.00;84.90;;;;;;4961715;28;20030;-77
2023/08/22 01:34:25;;;;;;;24.23;17.48;;;18.90;85.00;;;;;;4961981;28;20862;-78
2023/08/22 01:36:56;;;;;;;20.70;17.48;;;18.90;85.10;;;;;;4962693;28;20053;-77
2023/08/22 01:39:25;;;;;;;21.02;17.00;;;18.90;85.20;;;;;;4962770;28;20049;-77
2023/08/22 01:41:51;;;;;;;23.40;18.35;;;18.80;85.20;;;;;;4963119;28;20463;-77
2023/08/22 01:44:17;;;;;;;23.02;17.52;;;18.80;85.30;;;;;;4962732;28;20035;-78
2023/08/22 01:46:42;;;;;;;23.60;18.50;;;18.80;85.50;;;;;;4965596;28;20485;-77
2023/08/22 01:49:08;;;;;;;24.13;17.42;;;18.80;85.50;;;;;;4998059;28;20051;-77
2023/08/22 01:51:34;;;;;;;23.58;18.23;;;18.80;85.60;;;;;;4947056;28;20433;-77
2023/08/22 01:53:59;;;;;;;28.45;20.15;;;18.80;85.60;;;;;;4964799;28;20070;-77
2023/08/22 01:56:25;;;;;;;22.50;19.00;;;18.80;85.70;;;;;;4963674;28;20445;-78
2023/08/22 01:58:51;;;;;;;25.55;19.05;;;18.80;85.70;;;;;;4961128;28;20047;-77
2023/08/22 02:01:17;;;;;;;24.95;18.38;;;18.80;85.60;;;;;;4948838;28;20039;-78
2023/08/22 02:03:43;;;;;;;22.55;17.70;;;18.80;85.50;;;;;;4949805;28;20043;-77
2023/08/22 02:06:09;;;;;;;23.25;17.80;;;18.80;85.30;;;;;;4942301;28;20032;-77
2023/08/22 02:08:35;;;;;;;20.40;17.75;;;18.70;85.20;;;;;;4968461;28;20059;-77
2023/08/22 02:11:00;;;;;;;21.92;17.85;;;18.80;85.40;;;;;;4952096;28;20432;-77
2023/08/22 02:13:26;;;;;;;21.55;17.25;;;18.70;85.50;;;;;;4944899;28;20396;-78
2023/08/22 02:15:52;;;;;;;19.95;17.40;;;18.70;85.40;;;;;;4948133;28;20102;-77
2023/08/22 02:18:17;;;;;;;22.50;16.95;;;18.70;85.50;;;;;;4946922;28;20056;-77
2023/08/22 02:20:43;;;;;;;23.10;17.63;;;18.60;85.50;;;;;;4954132;28;20392;-77
2023/08/22 02:23:09;;;;;;;24.58;17.17;;;18.60;85.50;;;;;;4945007;28;20486;-77
2023/08/22 02:25:35;;;;;;;25.10;18.33;;;18.60;85.50;;;;;;4945433;28;20366;-78
2023/08/22 02:28:04;;;;;;;22.55;17.25;;;18.60;85.50;;;;;;4973108;28;20040;-77
2023/08/22 02:30:30;;;;;;;23.52;18.38;;;18.50;85.50;;;;;;4983532;28;20015;-78
2023/08/22 02:32:55;;;;;;;21.38;17.65;;;18.50;85.70;;;;;;4985025;28;20019;-79
2023/08/22 02:35:21;;;;;;;23.40;18.00;;;18.40;85.80;;;;;;4989599;28;20019;-77
2023/08/22 02:37:46;;;;;;;20.35;16.77;;;18.30;86.00;;;;;;4988395;28;20043;-78
2023/08/22 02:40:12;;;;;;;23.35;17.02;;;18.40;86.10;;;;;;4976663;28;20090;-77
2023/08/22 02:42:38;;;;;;;22.02;17.83;;;18.30;86.10;;;;;;4947263;28;20039;-77
2023/08/22 02:45:05;;;;;;;23.75;19.00;;;18.30;86.20;;;;;;4941934;28;20469;-78
2023/08/22 02:47:31;;;;;;;22.33;17.48;;;18.30;86.30;;;;;;4945304;28;20193;-78
2023/08/22 02:50:00;;;;;;;25.13;18.70;;;18.30;86.40;;;;;;4961868;28;20019;-77
2023/08/22 02:52:26;;;;;;;23.00;18.50;;;18.20;86.50;;;;;;4944617;28;20047;-79
2023/08/22 02:54:52;;;;;;;26.52;18.42;;;18.20;86.30;;;;;;4974419;28;20041;-77
2023/08/22 02:57:18;;;;;;;20.20;18.00;;;18.10;86.30;;;;;;4966795;28;20045;-79
2023/08/22 02:59:44;;;;;;;24.45;19.05;;;18.10;86.30;;;;;;4967361;28;20105;-78
2023/08/22 03:02:09;;;;;;;22.77;18.05;;;17.90;86.70;;;;;;4987092;28;20385;-77
2023/08/22 03:04:37;;;;;;;24.20;18.92;;;18.00;86.70;;;;;;4954052;28;20046;-77
2023/08/22 03:07:04;;;;;;;20.85;17.88;;;18.00;86.70;;;;;;4957821;28;20050;-77
2023/08/22 03:09:30;;;;;;;25.27;18.58;;;17.90;86.80;;;;;;4954771;28;20413;-77
2023/08/22 03:11:55;;;;;;;23.63;18.27;;;17.90;86.90;;;;;;4963564;28;20042;-77
2023/08/22 03:14:21;;;;;;;23.65;18.33;;;18.00;87.00;;;;;;4959250;28;20047;-77
2023/08/22 03:16:47;;;;;;;21.80;17.00;;;18.00;87.10;;;;;;4958683;28;20381;-77
2023/08/22 03:19:12;;;;;;;26.33;18.02;;;17.90;86.90;;;;;;4955996;28;20481;-77
2023/08/22 03:21:38;;;;;;;21.38;17.80;;;17.90;86.60;;;;;;4998116;28;20089;-78
2023/08/22 03:24:04;;;;;;;22.90;17.80;;;17.80;86.50;;;;;;4951653;28;20032;-77
2023/08/22 03:26:30;;;;;;;23.92;17.33;;;17.80;86.40;;;;;;4955230;28;20062;-77
2023/08/22 03:28:56;;;;;;;20.48;17.08;;;17.80;86.50;;;;;;4959412;28;20051;-77
2023/08/22 03:31:26;;;;;;;19.55;16.27;;;17.70;86.50;;;;;;4958713;28;20030;-77
2023/08/22 03:33:51;;;;;;;22.10;16.58;;;17.70;86.70;;;;;;4977973;28;20038;-77
2023/08/22 03:36:17;;;;;;;24.02;17.98;;;17.60;86.70;;;;;;4949181;28;20039;-76
2023/08/22 03:38:43;;;;;;;20.75;16.50;;;17.60;86.60;;;;;;4957237;28;20039;-76
2023/08/22 03:41:09;;;;;;;21.90;17.40;;;17.60;86.40;;;;;;4966835;28;20034;-76
2023/08/22 03:43:35;;;;;;;21.70;16.15;;;17.60;86.30;;;;;;4956797;28;20031;-76
2023/08/22 03:46:01;;;;;;;21.17;16.30;;;17.50;86.40;;;;;;4958875;28;20031;-76
2023/08/22 03:48:27;;;;;;;21.75;16.23;;;17.50;86.40;;;;;;4946742;28;20035;-77
2023/08/22 03:50:52;;;;;;;21.88;16.48;;;17.50;86.30;;;;;;4948110;28;20027;-76
2023/08/22 03:53:18;;;;;;;19.55;16.52;;;17.50;86.50;;;;;;4953703;28;20035;-76
2023/08/22 03:55:44;;;;;;;21.95;17.58;;;17.40;86.60;;;;;;4965312;28;20106;-78
2023/08/22 03:58:10;;;;;;;25.80;18.23;;;17.40;86.70;;;;;;4971524;28;20043;-77
2023/08/22 04:00:36;;;;;;;22.92;18.10;;;17.40;86.70;;;;;;4967724;28;20054;-77
2023/08/22 04:03:02;;;;;;;25.27;17.95;;;17.40;86.80;;;;;;4967124;28;20499;-78
2023/08/22 04:05:28;;;;;;;22.80;18.23;;;17.40;86.90;;;;;;4973710;28;20122;-76
2023/08/22 04:07:54;;;;;;;22.45;17.80;;;17.50;86.90;;;;;;4971827;28;20099;-76
2023/08/22 04:10:20;;;;;;;25.27;18.42;;;17.40;87.00;;;;;;4966143;28;20405;-76
2023/08/22 04:12:46;;;;;;;23.67;19.25;;;17.40;87.10;;;;;;4965991;28;20049;-76
2023/08/22 04:15:12;;;;;;;23.30;18.65;;;17.40;87.10;;;;;;4948609;29;20028;-77
2023/08/22 04:17:41;;;;;;;22.38;17.80;;;17.40;87.20;;;;;;4948098;28;20055;-76
2023/08/22 04:20:12;;;;;;;21.67;18.10;;;17.40;87.20;;;;;;4953657;28;20126;-76
2023/08/22 04:22:40;;;;;;;21.63;17.10;;;17.40;87.30;;;;;;4958895;28;21353;-76
2023/08/22 04:25:06;;;;;;;22.77;17.42;;;17.30;87.20;;;;;;4953829;28;20055;-76
2023/08/22 04:27:32;;;;;;;22.95;17.92;;;17.30;87.10;;;;;;4947774;28;20047;-76
2023/08/22 04:29:59;;;;;;;23.13;17.20;;;17.30;87.10;;;;;;4949466;28;20054;-76
2023/08/22 04:32:25;;;;;;;23.77;17.70;;;17.20;87.00;;;;;;4954273;28;20031;-76
2023/08/22 04:34:51;;;;;;;20.88;16.48;;;17.20;86.90;;;;;;4950299;28;20428;-76
2023/08/22 04:37:16;;;;;;;24.48;16.90;;;17.10;86.80;;;;;;4947814;28;20031;-76
2023/08/22 04:39:42;;;;;;;22.40;16.95;;;17.10;86.90;;;;;;4949197;28;20117;-76
2023/08/22 04:42:08;;;;;;;22.50;17.30;;;17.10;87.10;;;;;;4954391;28;20035;-78
2023/08/22 04:44:33;;;;;;;20.73;17.17;;;17.10;87.00;;;;;;4952194;28;20130;-77
2023/08/22 04:46:59;;;;;;;23.85;17.33;;;17.10;87.10;;;;;;4955471;28;20047;-76
2023/08/22 04:49:25;;;;;;;22.20;17.50;;;17.10;87.10;;;;;;4947518;28;20385;-76
2023/08/22 04:51:50;;;;;;;24.88;18.35;;;17.10;87.00;;;;;;4946563;28;20381;-76
2023/08/22 04:54:16;;;;;;;26.75;18.17;;;17.10;87.10;;;;;;4939511;28;20487;-77
2023/08/22 04:56:42;;;;;;;24.23;17.40;;;17.10;87.20;;;;;;4956740;28;20036;-77
2023/08/22 04:59:08;;;;;;;20.95;17.38;;;17.20;87.10;;;;;;4949054;28;20032;-76
2023/08/22 05:01:34;;;;;;;23.85;18.55;;;17.20;87.10;;;;;;4959005;28;20111;-77
2023/08/22 05:04:00;;;;;;;27.17;19.35;;;17.30;87.10;;;;;;4952530;28;20162;-76
2023/08/22 05:06:26;;;;;;;22.08;17.40;;;17.30;87.00;;;;;;4943028;28;20118;-76
2023/08/22 05:08:51;;;;;;;24.80;18.10;;;17.30;87.10;;;;;;4944271;28;20050;-78
2023/08/22 05:11:17;;;;;;;27.58;18.88;;;17.30;87.10;;;;;;4946964;28;20039;-76
2023/08/22 05:13:43;;;;;;;27.05;19.05;;;17.40;87.10;;;;;;4965971;28;20066;-76
2023/08/22 05:16:08;;;;;;;22.58;18.20;;;17.50;87.00;;;;;;4963890;28;20042;-76
2023/08/22 05:18:34;;;;;;;26.92;18.58;;;17.50;87.00;;;;;;4962567;28;20079;-77
2023/08/22 05:21:00;;;;;;;21.23;17.55;;;17.50;86.80;;;;;;4961737;28;20372;-77
2023/08/22 05:23:25;;;;;;;23.88;18.38;;;17.50;86.80;;;;;;4944451;28;20473;-77
2023/08/22 05:25:51;;;;;;;26.15;17.80;;;17.50;86.80;;;;;;4949324;28;20051;-76
2023/08/22 05:28:17;;;;;;;22.92;16.50;;;17.60;86.60;;;;;;4953809;28;20058;-76
2023/08/22 05:30:42;;;;;;;30.17;18.90;;;17.60;86.60;;;;;;4967155;28;20105;-77
2023/08/22 05:33:09;;;;;;;22.75;18.35;;;17.60;86.50;;;;;;4966672;28;20077;-76
2023/08/22 05:35:35;;;;;;;20.27;15.45;;;17.60;86.50;;;;;;4969095;28;20031;-77
2023/08/22 05:38:00;;;;;;;25.42;18.08;;;17.60;86.50;;;;;;4976340;28;20057;-77
2023/08/22 05:40:26;;;;;;;26.05;18.13;;;17.60;86.40;;;;;;4967206;28;20031;-77
2023/08/22 05:42:52;;;;;;;24.38;17.73;;;17.60;86.40;;;;;;4957341;28;20035;-76
2023/08/22 05:45:18;;;;;;;22.35;18.02;;;17.60;86.40;;;;;;4964691;28;20065;-77
2023/08/22 05:47:44;;;;;;;18.60;15.98;;;17.70;86.30;;;;;;4965705;28;20046;-75
2023/08/22 05:50:11;;;;;;;26.52;18.92;;;17.80;86.30;;;;;;4959942;28;20023;-77
2023/08/22 05:52:36;;;;;;;31.75;18.55;;;17.70;86.10;;;;;;4950694;28;20093;-77
2023/08/22 05:55:03;;;;;;;28.63;18.58;;;17.80;86.20;;;;;;4967309;28;20035;-76
2023/08/22 05:57:29;;;;;;;23.95;17.20;;;17.80;86.20;;;;;;4958825;28;20502;-76
2023/08/22 05:59:55;;;;;;;23.92;16.20;;;17.90;86.00;;;;;;4945543;28;20102;-77
2023/08/22 06:02:21;;;;;;;25.75;17.27;;;18.00;85.80;;;;;;4941065;28;20063;-77
2023/08/22 06:04:46;;;;;;;30.15;17.20;;;18.10;85.50;;;;;;4966708;28;20062;-77
2023/08/22 06:07:12;;;;;;;27.25;16.30;;;18.10;85.30;;;;;;4968367;28;20043;-77
2023/08/22 06:09:38;;;;;;;22.67;15.68;;;18.20;85.10;;;;;;4968230;28;20062;-76
2023/08/22 06:12:05;;;;;;;24.42;15.70;;;18.20;84.80;;;;;;4967307;28;20096;-76
2023/08/22 06:14:30;;;;;;;24.65;15.32;;;18.30;84.30;;;;;;4966398;28;20039;-78
2023/08/22 06:16:57;;;;;;;18.30;12.98;;;18.40;84.00;;;;;;4959847;28;20042;-77
2023/08/22 06:19:23;;;;;;;23.27;15.15;;;18.30;83.70;;;;;;4986117;28;20040;-78
2023/08/22 06:21:49;;;;;;;21.08;13.73;;;18.40;83.40;;;;;;4975801;28;20027;-77
2023/08/22 06:24:15;;;;;;;21.17;13.77;;;18.50;83.30;;;;;;4947123;28;20170;-77
2023/08/22 06:26:41;;;;;;;17.83;12.98;;;18.50;82.90;;;;;;4947374;28;20058;-77
2023/08/22 06:29:06;;;;;;;16.65;11.77;;;18.60;82.70;;;;;;4953395;28;20108;-77
2023/08/22 06:31:32;;;;;;;19.38;12.70;;;18.80;82.50;;;;;;4953443;28;20540;-78
2023/08/22 06:33:58;;;;;;;17.63;11.82;;;18.90;81.70;;;;;;4953138;28;20038;-78
2023/08/22 06:36:23;;;;;;;16.95;11.30;;;18.90;81.00;;;;;;4957734;28;20038;-78
2023/08/22 06:38:51;;;;;;;17.15;11.18;;;19.10;80.60;;;;;;4949431;28;20062;-78
2023/08/22 06:41:17;;;;;;;15.32;10.70;;;19.10;80.00;;;;;;4960389;28;20037;-77
2023/08/22 06:43:42;;;;;;;16.67;10.32;;;19.20;79.80;;;;;;4944252;28;20036;-77
2023/08/22 06:46:08;;;;;;;17.00;10.80;;;19.30;79.60;;;;;;4946009;28;20031;-77
2023/08/22 06:48:34;;;;;;;16.00;10.45;;;19.30;80.00;;;;;;4953668;28;20122;-77
2023/08/22 06:50:59;;;;;;;17.95;8.77;;;19.40;78.70;;;;;;4955211;28;20047;-77
2023/08/22 06:53:25;;;;;;;16.63;9.07;;;19.50;78.50;;;;;;4959732;28;20453;-77
2023/08/22 06:55:51;;;;;;;18.50;8.80;;;19.70;78.00;;;;;;4959519;28;20025;-78
2023/08/22 06:58:17;;;;;;;15.30;7.68;;;19.90;77.50;;;;;;4953567;28;20031;-77
2023/08/22 07:00:43;;;;;;;14.20;7.50;;;20.10;77.50;;;;;;4952043;28;20028;-77
2023/08/22 07:03:09;;;;;;;13.23;6.75;;;20.30;76.80;;;;;;4955871;28;20423;-77
2023/08/22 07:05:36;;;;;;;14.57;6.60;;;20.50;75.00;;;;;;4946729;28;20031;-77
2023/08/22 07:08:02;;;;;;;12.85;6.82;;;20.60;74.90;;;;;;4952355;28;20350;-77
2023/08/22 07:10:28;;;;;;;14.13;6.43;;;20.80;74.00;;;;;;4947509;28;20062;-78
2023/08/22 07:12:53;;;;;;;10.80;5.95;;;20.80;73.30;;;;;;4945129;28;20074;-77
2023/08/22 07:15:19;;;;;;;13.85;6.18;;;20.70;73.40;;;;;;4966873;28;20054;-77
2023/08/22 07:17:45;;;;;;;13.50;6.00;;;20.70;73.50;;;;;;4956501;28;20035;-78
2023/08/22 07:20:10;;;;;;;11.07;6.32;;;20.60;73.50;;;;;;4955064;28;20050;-78
2023/08/22 07:22:36;;;;;;;12.18;6.53;;;20.60;74.00;;;;;;4968410;28;20031;-77
2023/08/22 07:25:03;;;;;;;10.90;5.75;;;20.60;74.60;;;;;;4953857;28;20031;-78
2023/08/22 07:27:31;;;;;;;12.05;7.00;;;20.60;74.70;;;;;;4959820;28;20051;-78
2023/08/22 07:29:57;;;;;;;13.05;6.22;;;20.40;74.80;;;;;;4964220;28;20526;-78
2023/08/22 07:32:23;;;;;;;11.55;6.95;;;20.30;75.20;;;;;;4956446;28;20039;-78
2023/08/22 07:34:48;;;;;;;13.40;7.30;;;20.30;75.20;;;;;;4944783;28;20054;-78
2023/08/22 07:37:14;;;;;;;13.70;7.32;;;20.30;75.20;;;;;;4956187;28;20093;-78
2023/08/22 07:39:41;;;;;;;15.68;7.60;;;20.20;75.90;;;;;;4968390;28;20038;-79
2023/08/22 07:42:07;;;;;;;14.55;7.32;;;20.30;75.00;;;;;;4961081;28;20106;-79
2023/08/22 07:44:33;;;;;;;16.65;8.13;;;20.30;75.50;;;;;;4967466;28;20528;-78
2023/08/22 07:46:58;;;;;;;17.67;7.93;;;20.30;75.20;;;;;;4970501;28;20047;-78
2023/08/22 07:49:24;;;;;;;12.65;7.88;;;20.10;74.80;;;;;;4992351;28;20039;-78
2023/08/22 07:51:50;;;;;;;14.40;7.55;;;20.30;75.00;;;;;;4984768;28;20053;-78
2023/08/22 07:54:16;;;;;;;16.50;7.93;;;20.50;75.20;;;;;;4972743;28;20337;-78
2023/08/22 07:56:42;;;;;;;13.93;7.85;;;20.60;74.30;;;;;;4977653;28;20038;-78
2023/08/22 07:59:08;;;;;;;12.95;7.82;;;20.70;73.90;;;;;;4969240;28;20035;-78
2023/08/22 08:01:36;;;;;;;13.43;8.82;;;20.80;74.40;;;;;;4970870;28;20038;-78
2023/08/22 08:04:02;;;;;;;12.82;8.43;;;20.90;73.70;;;;;;4983941;28;20043;-78
2023/08/22 08:06:35;;;;;;;16.27;9.20;;;21.00;74.00;;;;;;4973305;28;20042;-78
2023/08/22 08:09:04;;;;;;;17.35;9.15;;;21.20;73.40;;;;;;4965246;28;20038;-78
2023/08/22 08:11:30;;;;;;;14.15;8.48;;;21.30;72.30;;;;;;4960292;28;20038;-78
2023/08/22 08:13:56;;;;;;;16.45;9.73;;;21.50;71.90;;;;;;4949189;28;20078;-78
2023/08/22 08:16:22;;;;;;;15.73;10.40;;;21.50;72.10;;;;;;4953798;28;20114;-78
2023/08/22 08:18:49;;;;;;;20.92;10.43;;;21.40;72.30;;;;;;4949567;28;20077;-78
2023/08/22 08:21:15;;;;;;;18.25;10.82;;;21.40;72.30;;;;;;4949013;28;20024;-78
2023/08/22 08:23:42;;;;;;;13.02;8.70;;;21.50;72.40;;;;;;4953175;28;20040;-77
2023/08/22 08:26:08;;;;;;;15.70;10.70;;;21.80;72.00;;;;;;4949003;28;20112;-78
2023/08/22 08:28:34;;;;;;;15.25;9.68;;;21.80;71.40;;;;;;4957329;28;20047;-78
2023/08/22 08:30:59;;;;;;;18.73;10.27;;;21.80;71.30;;;;;;4949973;28;20032;-78
2023/08/22 08:33:25;;;;;;;16.85;9.05;;;21.80;70.60;;;;;;4949134;28;20058;-78
2023/08/22 08:35:51;;;;;;;23.08;11.40;;;21.80;71.20;;;;;;4949260;28;20028;-78
2023/08/22 08:38:16;;;;;;;17.45;9.25;;;21.90;70.90;;;;;;4945429;28;20090;-77
2023/08/22 08:40:44;;;;;;;14.35;9.18;;;22.10;71.00;;;;;;4963091;28;20035;-78
2023/08/22 08:43:10;;;;;;;13.98;8.50;;;22.20;70.00;;;;;;5053755;28;20037;-79
2023/08/22 08:45:37;;;;;;;16.63;8.00;;;22.30;70.10;;;;;;4948430;28;20478;-78
2023/08/22 08:48:03;;;;;;;16.75;9.32;;;22.30;70.10;;;;;;4942211;28;20560;-79
2023/08/22 08:50:31;;;;;;;18.67;8.70;;;22.40;70.30;;;;;;4946838;28;20059;-78
2023/08/22 08:52:56;;;;;;;16.63;8.95;;;22.60;70.00;;;;;;4943699;28;20162;-79
2023/08/22 08:55:22;;;;;;;13.90;9.02;;;22.60;69.10;;;;;;4943167;28;20541;-78
2023/08/22 08:57:48;;;;;;;13.15;8.60;;;22.60;69.50;;;;;;4964048;28;20395;-78
2023/08/22 09:00:15;;;;;;;17.90;8.73;;;22.90;68.80;;;;;;5051334;28;20033;-78
2023/08/22 09:02:41;;;;;;;13.38;8.07;;;22.90;67.40;;;;;;4999021;28;20066;-78
2023/08/22 09:05:09;;;;;;;15.48;9.30;;;22.80;67.80;;;;;;4947781;28;20129;-78
2023/08/22 09:07:35;;;;;;;14.65;7.78;;;23.00;66.80;;;;;;4952187;28;20050;-78
2023/08/22 09:10:02;;;;;;;12.30;7.18;;;23.10;67.30;;;;;;4957701;28;20019;-78
2023/08/22 09:12:33;;;;;;;13.55;6.97;;;23.30;66.30;;;;;;4960720;28;20477;-78
2023/08/22 09:14:59;;;;;;;13.13;8.43;;;23.40;66.30;;;;;;4961760;28;20118;-79
2023/08/22 09:17:28;;;;;;;12.82;7.45;;;23.40;65.70;;;;;;4967810;28;20169;-79
2023/08/22 09:19:54;;;;;;;11.75;6.45;;;23.50;65.60;;;;;;4977871;28;20018;-78
2023/08/22 09:22:27;;;;;;;14.43;7.13;;;23.30;66.00;;;;;;4963071;28;20561;-77
2023/08/22 09:24:54;;;;;;;9.85;6.00;;;23.30;66.10;;;;;;4942481;28;20051;-78
2023/08/22 09:27:26;;;;;;;13.45;6.55;;;23.40;66.20;;;;;;4944733;28;20098;-78
2023/08/22 09:29:57;;;;;;;10.82;5.88;;;23.50;65.40;;;;;;4968866;28;20106;-78
2023/08/22 09:32:23;;;;;;;10.23;5.40;;;23.50;65.90;;;;;;4984218;28;20035;-78
2023/08/22 09:34:56;;;;;;;13.02;5.88;;;23.60;65.20;;;;;;4965271;28;20054;-78
2023/08/22 09:37:51;;;;;;;11.20;5.55;;;23.70;66.30;;;;;;4978710;28;20430;-78
2023/08/22 09:40:19;;;;;;;13.25;5.53;;;23.70;64.60;;;;;;4964934;28;20456;-78
2023/08/22 09:42:46;;;;;;;11.65;5.10;;;23.90;64.30;;;;;;4955009;28;20067;-78
2023/08/22 09:45:12;;;;;;;8.98;4.40;;;24.00;64.80;;;;;;4950969;28;20547;-78
2023/08/22 09:47:42;;;;;;;17.02;5.95;;;24.10;63.60;;;;;;4948754;28;20051;-78
2023/08/22 09:50:08;;;;;;;13.40;5.25;;;24.00;64.10;;;;;;4949837;28;20023;-78
2023/08/22 09:52:36;;;;;;;12.77;4.80;;;23.80;64.40;;;;;;4944952;28;20043;-77
2023/08/22 09:55:02;;;;;;;10.75;5.00;;;23.90;64.50;;;;;;4942845;28;20077;-77
2023/08/22 09:57:29;;;;;;;10.05;5.18;;;24.10;63.90;;;;;;4945064;28;20125;-77
2023/08/22 09:59:55;;;;;;;10.38;3.72;;;24.30;63.20;;;;;;4948280;28;20067;-77
2023/08/22 10:02:21;;;;;;;9.65;3.20;;;24.40;60.90;;;;;;4947957;28;20035;-77
2023/08/22 10:04:47;;;;;;;8.82;3.88;;;24.40;61.50;;;;;;4939817;28;20035;-77
2023/08/22 10:07:13;;;;;;;10.48;3.97;;;24.50;60.80;;;;;;4948927;28;20039;-77
2023/08/22 10:09:43;;;;;;;9.23;3.00;;;24.60;61.20;;;;;;4964328;28;20039;-76
2023/08/22 10:12:12;;;;;;;8.68;3.55;;;24.80;59.40;;;;;;4962155;28;20097;-80
2023/08/22 10:14:43;;;;;;;7.90;4.40;;;25.00;59.80;;;;;;4979361;28;20039;-78
2023/08/22 10:17:15;;;;;;;7.63;3.80;;;25.00;60.50;;;;;;4979520;28;20078;-79
2023/08/22 10:19:42;;;;;;;10.05;3.72;;;24.70;60.50;;;;;;4941617;28;20506;-79
2023/08/22 10:22:10;;;;;;;11.57;4.80;;;24.80;60.50;;;;;;4942606;28;20039;-79
2023/08/22 10:24:36;;;;;;;9.25;4.07;;;25.00;59.50;;;;;;4957931;28;20039;-79
2023/08/22 10:27:04;;;;;;;7.47;4.03;;;25.00;58.70;;;;;;4965241;28;20485;-79
2023/08/22 10:29:35;;;;;;;9.02;4.32;;;24.90;59.80;;;;;;4959155;28;20106;-79
2023/08/22 10:32:00;;;;;;;9.43;5.47;;;24.50;60.20;;;;;;4957586;28;20043;-78
2023/08/22 10:34:27;;;;;;;10.27;4.60;;;24.30;60.50;;;;;;4961368;28;20164;-79
2023/08/22 10:37:00;;;;;;;8.68;3.75;;;24.30;61.60;;;;;;4970211;28;20471;-79
2023/08/22 10:39:47;;;;;;;8.15;4.32;;;24.70;61.60;;;;;;4977370;28;20051;-78
2023/08/22 10:42:20;;;;;;;8.43;4.20;;;25.00;60.60;;;;;;4964685;28;20035;-79
2023/08/22 10:44:49;;;;;;;12.90;3.85;;;24.90;60.50;;;;;;4964333;28;20074;-79
2023/08/22 10:47:19;;;;;;;9.68;3.75;;;25.10;60.10;;;;;;4962945;28;20047;-78
2023/08/22 10:49:55;;;;;;;8.63;3.80;;;25.10;58.30;;;;;;4961531;28;20063;-79
2023/08/22 10:52:36;;;;;;;10.35;3.88;;;24.90;60.10;;;;;;4956863;28;20053;-78
2023/08/22 10:55:12;;;;;;;7.70;4.18;;;25.00;59.60;;;;;;4962324;28;20031;-78
2023/08/22 10:57:45;;;;;;;9.98;4.82;;;24.80;59.70;;;;;;4964954;28;20047;-79
2023/08/22 11:00:24;;;;;;;9.88;4.65;;;24.70;59.60;;;;;;4968623;28;20383;-78
2023/08/22 11:02:58;;;;;;;8.23;4.03;;;24.20;61.70;;;;;;4966118;28;20045;-78
2023/08/22 11:05:24;;;;;;;10.60;4.40;;;24.20;62.00;;;;;;4967176;28;20031;-79
2023/08/22 11:07:51;;;;;;;8.50;5.05;;;24.30;61.90;;;;;;4987658;28;20053;-78
2023/08/22 11:10:26;;;;;;;9.80;4.60;;;24.40;61.70;;;;;;4975583;28;20110;-77
2023/08/22 11:12:55;;;;;;;12.02;6.00;;;24.60;62.20;;;;;;4968032;28;20508;-77
2023/08/22 11:15:21;;;;;;;10.23;4.20;;;24.50;62.50;;;;;;4959649;28;20456;-77
2023/08/22 11:17:48;;;;;;;10.85;5.03;;;24.50;62.40;;;;;;4986962;28;20130;-78
2023/08/22 11:20:17;;;;;;;9.45;4.97;;;24.50;61.70;;;;;;4942971;28;20031;-78
2023/08/22 11:22:44;;;;;;;10.63;5.15;;;24.60;61.50;;;;;;4946923;28;20512;-79
2023/08/22 11:25:11;;;;;;;10.35;4.88;;;24.50;61.50;;;;;;4963329;28;20034;-78
2023/08/22 11:27:38;;;;;;;8.57;4.75;;;24.70;61.70;;;;;;4964268;28;20045;-79
2023/08/22 11:30:07;;;;;;;9.23;5.13;;;25.00;61.90;;;;;;4967415;28;20436;-78
2023/08/22 11:32:35;;;;;;;11.50;5.75;;;25.30;60.50;;;;;;4973257;28;20039;-77
2023/08/22 11:35:03;;;;;;;11.77;5.10;;;25.40;60.10;;;;;;4980567;28;20016;-79
2023/08/22 11:37:31;;;;;;;8.07;5.30;;;25.50;60.60;;;;;;4979386;28;20042;-78
2023/08/22 11:39:58;;;;;;;9.80;5.00;;;25.60;59.50;;;;;;4982032;28;20019;-79
2023/08/22 11:42:24;;;;;;;11.07;5.90;;;25.40;60.70;;;;;;4962073;28;20524;-78
2023/08/22 11:45:04;;;;;;;10.38;6.28;;;25.20;60.00;;;;;;4961952;28;20327;-78
2023/08/22 11:47:37;;;;;;;9.38;5.32;;;25.10;60.90;;;;;;4961681;28;20493;-78
2023/08/22 11:50:04;;;;;;;11.18;6.85;;;25.20;61.70;;;;;;4964907;28;20488;-78
2023/08/22 11:52:30;;;;;;;11.32;6.82;;;25.40;62.00;;;;;;4951743;28;20127;-79
2023/08/22 11:55:06;;;;;;;13.95;5.53;;;25.60;60.40;;;;;;4967036;28;20437;-78
2023/08/22 11:57:37;;;;;;;10.32;5.35;;;25.90;60.10;;;;;;4954446;28;20126;-78
2023/08/22 12:00:06;;;;;;;10.60;6.75;;;25.90;60.80;;;;;;4947997;28;20059;-78
2023/08/22 12:02:31;;;;;;;11.55;6.70;;;26.20;59.20;;;;;;4944641;28;20672;-79
2023/08/22 12:04:57;;;;;;;11.32;7.15;;;26.10;58.40;;;;;;4947700;28;20028;-79
2023/08/22 12:07:23;;;;;;;11.13;6.35;;;26.30;57.60;;;;;;4953115;28;20051;-79
2023/08/22 12:10:03;;;;;;;10.60;5.93;;;26.20;58.80;;;;;;4966064;28;20314;-78
2023/08/22 12:12:29;;;;;;;10.77;5.13;;;26.40;58.00;;;;;;4986000;28;20087;-78
2023/08/22 12:14:55;;;;;;;10.18;5.20;;;26.60;57.30;;;;;;4966505;28;20534;-78
2023/08/22 12:17:21;;;;;;;10.40;4.78;;;26.60;57.00;;;;;;4963956;28;20047;-78
2023/08/22 12:19:47;;;;;;;9.32;5.20;;;27.00;56.70;;;;;;4963650;28;20062;-78
2023/08/22 12:22:12;;;;;;;8.90;3.70;;;27.50;55.10;;;;;;4966318;28;20035;-78
2023/08/22 12:24:38;;;;;;;10.55;3.40;;;27.10;54.60;;;;;;4959071;28;20041;-79
2023/08/22 12:27:04;;;;;;;7.60;3.20;;;27.00;55.30;;;;;;4969114;28;20053;-78
2023/08/22 12:29:29;;;;;;;9.32;3.38;;;27.20;54.20;;;;;;4964055;28;20038;-79
2023/08/22 12:31:55;;;;;;;9.15;3.70;;;27.40;52.00;;;;;;4967348;28;20027;-79